Time;durP1;ratioP1;P1;durP2;ratioP2;P2;SDS_P1;SDS_P2;PMS_P1;PMS_P2;Temp;Humidity;BMP_temperature;BMP_pressure;BME280_temperature;BME280_humidity;BME280_pressure;Samples;Min_cycle;Max_cycle;Signal;HPM_P1;HPM_P2
2020/12/28 00:00:33;;;;;;;56.55;35.25;;;4.90;99.90;;;;;;4925713;28;20484;-84
2020/12/28 00:02:59;;;;;;;56.63;36.88;;;4.90;99.90;;;;;;4957562;28;20034;-84
2020/12/28 00:05:26;;;;;;;58.75;37.92;;;4.60;99.90;;;;;;4941305;28;20499;-85
2020/12/28 00:07:52;;;;;;;54.55;35.33;;;4.70;99.90;;;;;;4957055;28;20489;-84
2020/12/28 00:10:19;;;;;;;46.63;30.65;;;4.70;99.90;;;;;;4941037;28;20065;-83
2020/12/28 00:12:47;;;;;;;51.15;33.17;;;4.70;99.90;;;;;;4956747;28;20022;-85
2020/12/28 00:15:26;;;;;;;48.35;32.75;;;4.70;99.90;;;;;;4941963;28;20038;-85
2020/12/28 00:17:58;;;;;;;47.40;32.35;;;4.70;99.90;;;;;;4957367;28;20458;-85
2020/12/28 00:20:26;;;;;;;53.35;33.05;;;4.70;99.90;;;;;;4974702;28;20109;-84
2020/12/28 00:22:51;;;;;;;46.17;31.10;;;4.70;99.90;;;;;;4956670;28;20031;-83
2020/12/28 00:25:19;;;;;;;58.78;36.25;;;4.80;99.90;;;;;;4957081;28;20034;-84
2020/12/28 00:27:46;;;;;;;50.58;33.22;;;4.60;99.90;;;;;;4974213;28;20042;-85
2020/12/28 00:30:11;;;;;;;63.42;38.03;;;4.50;99.90;;;;;;4941559;28;20041;-84
2020/12/28 00:32:37;;;;;;;49.53;33.10;;;4.40;99.90;;;;;;4941044;28;20125;-86
2020/12/28 00:35:05;;;;;;;60.38;37.28;;;4.50;99.90;;;;;;4941133;28;20030;-86
2020/12/28 00:37:31;;;;;;;50.53;32.30;;;4.60;99.90;;;;;;4957024;28;20107;-85
2020/12/28 00:39:56;;;;;;;60.97;36.38;;;4.50;99.90;;;;;;4941349;28;20034;-85
2020/12/28 00:42:22;;;;;;;81.45;47.88;;;4.50;99.90;;;;;;4956743;28;20023;-85
2020/12/28 00:44:48;;;;;;;91.72;49.78;;;4.40;99.90;;;;;;4940821;28;20461;-85
2020/12/28 00:47:14;;;;;;;89.82;48.67;;;4.40;99.90;;;;;;4974315;28;20039;-85
2020/12/28 00:49:40;;;;;;;80.68;47.22;;;4.40;99.90;;;;;;4940972;28;20436;-85
2020/12/28 00:52:05;;;;;;;76.57;45.90;;;4.40;99.90;;;;;;4940972;28;20083;-84
2020/12/28 00:54:33;;;;;;;67.35;43.10;;;4.50;99.90;;;;;;4941020;28;20023;-84
2020/12/28 00:56:59;;;;;;;72.93;43.00;;;4.60;99.90;;;;;;4956778;28;20369;-83
2020/12/28 00:59:24;;;;;;;108.85;56.00;;;4.60;99.90;;;;;;4956708;28;20078;-83
2020/12/28 01:01:57;;;;;;;87.15;48.15;;;4.60;99.90;;;;;;4940824;28;20445;-84
2020/12/28 01:04:24;;;;;;;122.63;54.72;;;4.60;99.90;;;;;;4974397;28;20027;-85
2020/12/28 01:06:50;;;;;;;127.82;53.78;;;4.60;99.90;;;;;;4956534;28;20035;-84
2020/12/28 01:09:16;;;;;;;127.88;51.47;;;4.50;99.90;;;;;;4956940;28;20122;-83
2020/12/28 01:11:42;;;;;;;156.60;55.83;;;4.50;99.90;;;;;;4956461;28;20055;-83
2020/12/28 01:14:10;;;;;;;175.07;57.20;;;4.50;99.90;;;;;;4974260;28;20077;-84
2020/12/28 01:16:37;;;;;;;130.85;55.38;;;4.40;99.90;;;;;;4956687;28;20038;-83
2020/12/28 01:19:04;;;;;;;174.52;64.20;;;4.40;99.90;;;;;;4956878;28;20031;-83
2020/12/28 01:21:29;;;;;;;148.10;62.22;;;4.40;99.90;;;;;;4956372;28;20433;-83
2020/12/28 01:23:57;;;;;;;98.03;51.08;;;4.40;99.90;;;;;;4940747;28;20031;-83
2020/12/28 01:26:22;;;;;;;108.43;56.08;;;4.50;99.90;;;;;;4956664;28;20090;-85
2020/12/28 01:28:49;;;;;;;97.22;50.72;;;4.60;99.90;;;;;;4944858;28;20015;-84
2020/12/28 01:31:14;;;;;;;85.22;47.50;;;4.60;99.90;;;;;;4979311;28;20078;-82
2020/12/28 01:33:40;;;;;;;91.53;50.47;;;4.70;99.90;;;;;;4961593;28;20030;-84
2020/12/28 01:36:06;;;;;;;100.05;52.13;;;4.70;99.90;;;;;;4957092;28;20092;-83
2020/12/28 01:38:32;;;;;;;95.68;51.53;;;4.50;99.90;;;;;;4956524;28;20026;-84
2020/12/28 01:41:00;;;;;;;82.63;47.90;;;4.50;99.90;;;;;;4940368;28;20046;-83
2020/12/28 01:43:27;;;;;;;129.35;64.82;;;4.50;99.90;;;;;;4956098;28;20030;-84
2020/12/28 01:45:53;;;;;;;107.43;57.70;;;4.50;99.90;;;;;;4956789;28;20512;-84
2020/12/28 01:48:19;;;;;;;87.03;51.17;;;4.50;99.90;;;;;;4940713;28;20108;-84
2020/12/28 01:50:44;;;;;;;92.55;53.17;;;4.50;99.90;;;;;;4940681;28;20082;-84
2020/12/28 01:53:11;;;;;;;85.97;50.10;;;4.40;99.90;;;;;;4940528;28;20031;-84
2020/12/28 01:55:39;;;;;;;83.55;51.17;;;4.40;99.90;;;;;;4959354;28;20034;-84
2020/12/28 01:58:05;;;;;;;78.65;48.10;;;4.30;99.90;;;;;;4959637;28;20101;-84
2020/12/28 02:00:31;;;;;;;73.32;45.45;;;4.40;99.90;;;;;;4943911;28;20468;-83
2020/12/28 02:02:57;;;;;;;81.25;47.97;;;4.40;99.90;;;;;;4943371;28;20062;-84
2020/12/28 02:05:22;;;;;;;86.40;48.70;;;4.30;99.90;;;;;;4943549;28;20038;-83
2020/12/28 02:07:53;;;;;;;73.82;46.67;;;4.30;99.90;;;;;;4943426;28;20126;-84
2020/12/28 02:10:19;;;;;;;70.80;44.30;;;4.30;99.90;;;;;;4959634;28;20094;-83
2020/12/28 02:12:45;;;;;;;82.40;47.58;;;4.30;99.90;;;;;;4976347;28;20034;-84
2020/12/28 02:15:10;;;;;;;80.55;46.75;;;4.30;99.90;;;;;;4943393;28;20027;-82
2020/12/28 02:17:36;;;;;;;72.90;43.13;;;4.20;99.90;;;;;;4959186;28;20038;-85
2020/12/28 02:20:02;;;;;;;77.90;46.80;;;4.30;99.90;;;;;;4943287;28;20030;-83
2020/12/28 02:22:28;;;;;;;85.95;51.20;;;4.20;99.90;;;;;;4976800;28;20034;-83
2020/12/28 02:24:53;;;;;;;83.50;49.63;;;4.20;99.90;;;;;;4959033;28;20031;-84
2020/12/28 02:27:19;;;;;;;78.47;46.45;;;4.30;99.90;;;;;;4943955;28;20035;-83
2020/12/28 02:29:45;;;;;;;67.45;41.63;;;4.30;99.90;;;;;;4977818;28;20062;-85
2020/12/28 02:32:10;;;;;;;69.75;43.92;;;4.20;99.90;;;;;;4959456;28;20031;-83
2020/12/28 02:34:36;;;;;;;73.38;46.00;;;4.10;99.90;;;;;;4943235;28;20353;-83
2020/12/28 02:37:02;;;;;;;62.35;39.92;;;4.10;99.90;;;;;;4959031;28;20043;-83
2020/12/28 02:39:27;;;;;;;69.63;43.20;;;4.10;99.90;;;;;;4943214;28;20031;-83
2020/12/28 02:41:53;;;;;;;70.13;43.83;;;4.20;99.90;;;;;;4942602;28;20477;-84
2020/12/28 02:44:19;;;;;;;80.35;50.92;;;4.10;99.90;;;;;;4959583;28;20042;-83
2020/12/28 02:46:44;;;;;;;81.35;48.03;;;3.90;99.90;;;;;;4942876;28;20432;-83
2020/12/28 02:49:10;;;;;;;87.75;51.08;;;3.90;99.90;;;;;;4942462;28;20027;-84
2020/12/28 02:51:35;;;;;;;69.68;41.15;;;4.00;99.90;;;;;;4943080;28;20477;-84
2020/12/28 02:54:01;;;;;;;75.22;44.20;;;4.00;99.90;;;;;;4942826;28;20023;-84
2020/12/28 02:56:26;;;;;;;74.68;44.72;;;4.10;99.90;;;;;;4975832;28;20041;-84
2020/12/28 02:58:52;;;;;;;74.47;46.60;;;4.10;99.90;;;;;;4942724;28;20109;-84
2020/12/28 03:01:18;;;;;;;71.45;44.05;;;4.00;99.90;;;;;;4942744;28;20041;-84
2020/12/28 03:03:43;;;;;;;80.85;48.72;;;3.90;99.90;;;;;;4942862;28;20085;-83
2020/12/28 03:06:10;;;;;;;84.22;48.05;;;3.90;99.90;;;;;;4957294;28;20427;-84
2020/12/28 03:08:36;;;;;;;67.70;43.28;;;3.90;99.90;;;;;;4959090;28;20031;-84
2020/12/28 03:11:02;;;;;;;65.07;41.67;;;3.80;99.90;;;;;;4958053;28;20500;-84
2020/12/28 03:13:27;;;;;;;86.35;48.15;;;3.90;99.90;;;;;;4942583;28;20046;-83
2020/12/28 03:15:53;;;;;;;81.82;49.03;;;3.80;99.90;;;;;;4958163;28;20035;-84
2020/12/28 03:18:19;;;;;;;76.20;47.80;;;3.90;99.90;;;;;;4958176;28;20042;-84
2020/12/28 03:20:44;;;;;;;82.55;47.53;;;3.80;99.90;;;;;;4942270;28;20034;-84
2020/12/28 03:23:10;;;;;;;79.55;46.40;;;3.80;99.90;;;;;;4958149;28;20031;-83
2020/12/28 03:25:35;;;;;;;92.95;50.92;;;3.70;99.90;;;;;;4958508;28;20034;-83
2020/12/28 03:28:01;;;;;;;88.75;50.25;;;3.70;99.90;;;;;;4957859;28;20046;-84
2020/12/28 03:30:27;;;;;;;92.07;51.53;;;3.80;99.90;;;;;;4942164;28;20376;-83
2020/12/28 03:32:53;;;;;;;96.20;50.72;;;3.80;99.90;;;;;;4975676;28;20487;-83
2020/12/28 03:35:18;;;;;;;91.45;51.65;;;3.80;99.90;;;;;;4942085;28;20126;-84
2020/12/28 03:37:44;;;;;;;92.53;50.20;;;3.80;99.90;;;;;;4957966;28;20039;-83
2020/12/28 03:40:10;;;;;;;123.25;59.55;;;3.80;99.90;;;;;;4941663;28;20534;-85
2020/12/28 03:42:35;;;;;;;100.82;53.15;;;3.90;99.90;;;;;;4958199;28;20465;-83
2020/12/28 03:45:01;;;;;;;128.18;62.85;;;3.70;99.90;;;;;;4941834;28;20077;-83
2020/12/28 03:47:27;;;;;;;114.15;55.05;;;3.70;99.90;;;;;;4958003;28;20555;-83
2020/12/28 03:49:52;;;;;;;114.10;56.63;;;3.80;99.90;;;;;;4941968;28;20405;-83
2020/12/28 03:52:18;;;;;;;124.60;56.20;;;3.80;99.90;;;;;;4957722;28;20030;-83
2020/12/28 03:54:46;;;;;;;120.05;57.20;;;3.80;99.90;;;;;;4942041;28;20038;-84
2020/12/28 03:57:12;;;;;;;112.15;56.00;;;3.80;99.90;;;;;;4957593;28;20030;-84
2020/12/28 03:59:37;;;;;;;110.28;53.20;;;3.70;99.90;;;;;;4958015;28;20041;-83
2020/12/28 04:02:03;;;;;;;126.07;58.20;;;3.70;99.90;;;;;;4974632;28;20038;-83
2020/12/28 04:04:29;;;;;;;123.53;55.55;;;3.70;99.90;;;;;;4941776;28;20037;-83
2020/12/28 04:06:54;;;;;;;150.68;61.55;;;3.60;99.90;;;;;;4951705;28;20481;-82
2020/12/28 04:09:20;;;;;;;141.40;61.72;;;3.60;99.90;;;;;;4963150;28;20094;-82
2020/12/28 04:11:45;;;;;;;223.68;65.80;;;3.70;99.90;;;;;;4941517;28;20524;-83
2020/12/28 04:14:11;;;;;;;189.70;58.90;;;3.70;99.90;;;;;;4941283;28;20038;-83
2020/12/28 04:16:37;;;;;;;174.13;58.83;;;3.70;99.90;;;;;;4956825;28;20038;-83
2020/12/28 04:19:02;;;;;;;213.55;59.58;;;3.60;99.90;;;;;;4957061;28;20113;-83
2020/12/28 04:21:28;;;;;;;161.70;56.85;;;3.50;99.90;;;;;;4941376;28;20424;-83
2020/12/28 04:23:53;;;;;;;193.40;62.03;;;3.40;99.90;;;;;;4957392;28;20034;-84
2020/12/28 04:26:19;;;;;;;247.40;71.45;;;3.50;99.90;;;;;;4957166;28;20041;-84
2020/12/28 04:28:46;;;;;;;215.27;68.00;;;3.60;99.90;;;;;;4941375;28;20045;-84
2020/12/28 04:31:11;;;;;;;126.88;52.70;;;3.60;99.90;;;;;;4941534;28;20035;-84
2020/12/28 04:33:38;;;;;;;166.50;62.33;;;3.60;99.90;;;;;;4974706;28;20484;-84
2020/12/28 04:36:04;;;;;;;115.60;54.88;;;3.50;99.90;;;;;;4957326;28;20066;-84
2020/12/28 04:38:30;;;;;;;163.20;60.58;;;3.60;99.90;;;;;;4975887;28;20035;-83
2020/12/28 04:40:55;;;;;;;178.38;65.95;;;3.50;99.90;;;;;;4975848;28;20488;-84
2020/12/28 04:43:24;;;;;;;130.30;56.83;;;3.50;99.90;;;;;;4957120;28;20104;-84
2020/12/28 04:45:51;;;;;;;134.55;58.20;;;3.60;99.90;;;;;;4941337;28;20492;-84
2020/12/28 04:48:17;;;;;;;136.60;60.80;;;3.60;99.90;;;;;;4940774;28;20073;-84
2020/12/28 04:50:43;;;;;;;122.05;51.65;;;3.60;99.90;;;;;;4956819;28;20031;-84
2020/12/28 04:53:08;;;;;;;130.35;54.40;;;3.60;99.90;;;;;;4956675;28;20031;-84
2020/12/28 04:55:34;;;;;;;235.10;78.63;;;3.60;99.90;;;;;;4974508;28;20023;-83
2020/12/28 04:58:00;;;;;;;154.52;62.35;;;3.40;99.90;;;;;;4957146;28;20479;-83
2020/12/28 05:00:26;;;;;;;119.38;54.35;;;3.40;99.90;;;;;;4956945;28;20063;-84
2020/12/28 05:02:52;;;;;;;121.78;55.17;;;3.50;99.90;;;;;;4941112;28;20585;-84
2020/12/28 05:05:17;;;;;;;132.48;56.83;;;3.50;99.90;;;;;;4956774;28;20031;-84
2020/12/28 05:07:48;;;;;;;158.35;62.47;;;3.60;99.90;;;;;;4957072;28;20539;-84
2020/12/28 05:10:26;;;;;;;128.00;53.90;;;3.50;99.90;;;;;;4940542;28;20046;-83
2020/12/28 05:12:53;;;;;;;147.45;60.65;;;3.50;99.90;;;;;;4957452;28;20039;-83
2020/12/28 05:15:19;;;;;;;118.22;51.75;;;3.50;99.90;;;;;;4973871;28;20106;-83
2020/12/28 05:17:54;;;;;;;113.22;51.53;;;3.50;99.90;;;;;;4941462;28;20077;-83
2020/12/28 05:20:24;;;;;;;144.18;57.78;;;3.60;99.90;;;;;;4940432;28;20476;-83
2020/12/28 05:22:51;;;;;;;141.07;59.78;;;3.60;99.90;;;;;;4973704;28;20042;-83
2020/12/28 05:25:17;;;;;;;114.90;51.08;;;3.70;99.90;;;;;;4956259;28;20073;-83
2020/12/28 05:27:46;;;;;;;136.60;59.50;;;3.70;99.90;;;;;;4973868;28;20030;-84
2020/12/28 05:30:12;;;;;;;114.60;52.78;;;3.60;99.90;;;;;;4976225;28;20062;-83
2020/12/28 05:32:45;;;;;;;114.82;52.70;;;3.70;99.90;;;;;;4960209;28;20053;-83
2020/12/28 05:35:15;;;;;;;134.55;58.42;;;3.70;99.90;;;;;;4960129;28;20054;-83
2020/12/28 05:37:45;;;;;;;176.68;67.40;;;3.60;99.90;;;;;;4977767;28;20077;-83
2020/12/28 05:40:12;;;;;;;132.55;56.67;;;3.50;99.90;;;;;;4959988;28;20114;-84
2020/12/28 05:42:49;;;;;;;129.80;56.17;;;3.50;99.90;;;;;;4960209;28;20173;-84
2020/12/28 05:45:15;;;;;;;133.88;52.00;;;3.50;99.90;;;;;;4944174;28;20034;-84
2020/12/28 05:47:43;;;;;;;134.38;53.30;;;3.50;99.90;;;;;;4960360;28;20101;-84
2020/12/28 05:50:09;;;;;;;125.90;52.90;;;3.50;99.90;;;;;;4960131;28;20023;-84
2020/12/28 05:52:51;;;;;;;123.57;52.08;;;3.50;99.90;;;;;;4944140;28;20035;-84
2020/12/28 05:55:18;;;;;;;126.95;51.25;;;3.60;99.90;;;;;;4959876;28;20044;-84
2020/12/28 05:57:45;;;;;;;112.03;47.60;;;3.60;99.90;;;;;;4960081;28;20039;-83
2020/12/28 06:00:11;;;;;;;106.95;47.15;;;3.60;99.90;;;;;;4976779;28;20031;-84
2020/12/28 06:02:39;;;;;;;109.47;47.22;;;3.60;99.90;;;;;;4976900;28;20114;-83
2020/12/28 06:05:08;;;;;;;122.10;50.50;;;3.60;99.90;;;;;;4943639;28;20031;-84
2020/12/28 06:07:34;;;;;;;126.85;48.97;;;3.70;99.90;;;;;;4976948;28;20039;-83
2020/12/28 06:09:59;;;;;;;112.10;48.25;;;3.70;99.90;;;;;;4943705;28;20057;-84
2020/12/28 06:12:25;;;;;;;111.03;48.20;;;3.70;99.90;;;;;;4943335;28;20473;-84
2020/12/28 06:14:51;;;;;;;138.95;55.55;;;3.70;99.90;;;;;;4977008;28;20464;-84
2020/12/28 06:17:17;;;;;;;108.13;47.47;;;3.70;99.90;;;;;;4959287;28;20384;-84
2020/12/28 06:19:43;;;;;;;120.43;50.72;;;3.80;99.90;;;;;;4959525;28;20030;-84
2020/12/28 06:22:22;;;;;;;108.28;46.63;;;3.70;99.90;;;;;;4943506;28;20500;-83
2020/12/28 06:25:03;;;;;;;111.45;49.58;;;3.80;99.90;;;;;;4943532;28;20039;-84
2020/12/28 06:27:54;;;;;;;110.35;46.63;;;3.80;99.90;;;;;;4976281;28;20069;-84
2020/12/28 06:30:22;;;;;;;102.75;46.20;;;3.80;99.90;;;;;;4955385;28;20057;-85
2020/12/28 06:32:49;;;;;;;108.13;46.58;;;3.70;99.90;;;;;;4943267;28;20107;-84
2020/12/28 06:35:16;;;;;;;100.68;48.25;;;3.80;99.90;;;;;;4943356;28;20031;-84
2020/12/28 06:37:53;;;;;;;112.15;47.65;;;3.80;99.90;;;;;;4943526;28;20526;-84
2020/12/28 06:40:40;;;;;;;99.03;44.45;;;3.90;99.90;;;;;;4959019;28;20026;-84
2020/12/28 06:43:23;;;;;;;107.68;47.13;;;3.90;99.90;;;;;;4976953;28;20031;-83
2020/12/28 06:45:49;;;;;;;108.65;46.97;;;3.90;99.90;;;;;;4981869;28;20022;-83
2020/12/28 06:48:25;;;;;;;97.80;43.25;;;3.90;99.90;;;;;;4951105;28;20125;-83
2020/12/28 06:50:53;;;;;;;97.40;43.22;;;3.90;99.90;;;;;;4959979;28;20035;-84
2020/12/28 06:53:23;;;;;;;112.28;46.78;;;3.90;99.90;;;;;;4943730;28;20034;-85
2020/12/28 06:55:49;;;;;;;94.05;43.40;;;3.90;99.90;;;;;;4960073;28;20109;-83
2020/12/28 06:58:15;;;;;;;95.93;45.45;;;3.90;99.90;;;;;;4960016;28;20038;-89
2020/12/28 07:00:40;;;;;;;99.68;46.53;;;3.90;99.90;;;;;;4959900;28;20481;-84
2020/12/28 07:03:17;;;;;;;100.70;44.97;;;3.90;99.90;;;;;;4960308;28;20118;-83
2020/12/28 07:05:42;;;;;;;107.07;46.97;;;3.80;99.90;;;;;;4958717;28;20030;-83
2020/12/28 07:08:08;;;;;;;94.90;44.97;;;3.80;99.90;;;;;;4942920;28;20038;-84
2020/12/28 07:10:34;;;;;;;99.25;45.80;;;3.80;99.90;;;;;;4975704;28;20552;-84
2020/12/28 07:13:07;;;;;;;94.68;45.85;;;3.80;99.90;;;;;;4942630;28;20465;-84
2020/12/28 07:15:34;;;;;;;93.07;42.80;;;3.80;99.90;;;;;;4958373;28;20495;-84
2020/12/28 07:18:07;;;;;;;90.32;43.08;;;3.90;99.90;;;;;;4958368;28;20053;-84
2020/12/28 07:20:32;;;;;;;107.20;48.28;;;4.00;99.90;;;;;;4958766;28;20031;-83
2020/12/28 07:22:58;;;;;;;100.95;43.13;;;4.00;99.90;;;;;;4975982;28;20449;-83
2020/12/28 07:25:24;;;;;;;101.25;45.60;;;4.00;99.90;;;;;;4942383;28;20521;-83
2020/12/28 07:27:51;;;;;;;104.60;46.33;;;3.80;99.90;;;;;;4975637;28;20043;-84
2020/12/28 07:30:17;;;;;;;89.18;43.28;;;3.80;99.90;;;;;;4958507;28;20038;-88
2020/12/28 07:32:43;;;;;;;89.03;43.72;;;3.80;99.90;;;;;;4942096;28;20035;-84
2020/12/28 07:35:08;;;;;;;92.95;43.30;;;3.80;99.90;;;;;;4942188;28;20027;-83
2020/12/28 07:37:40;;;;;;;94.78;47.25;;;3.80;99.90;;;;;;4957964;28;20384;-84
2020/12/28 07:40:06;;;;;;;92.88;43.92;;;3.80;99.90;;;;;;4975996;28;20534;-84
2020/12/28 07:42:33;;;;;;;94.05;47.30;;;3.80;99.90;;;;;;4958117;28;20061;-83
2020/12/28 07:45:01;;;;;;;81.65;41.80;;;3.80;99.90;;;;;;4958358;28;20065;-83
2020/12/28 07:47:46;;;;;;;87.03;43.65;;;3.80;99.90;;;;;;4958091;28;20035;-83
2020/12/28 07:50:14;;;;;;;91.07;44.90;;;3.90;99.90;;;;;;4958540;28;20031;-83
2020/12/28 07:53:00;;;;;;;84.53;40.20;;;3.90;99.90;;;;;;4957650;28;20035;-83
2020/12/28 07:55:29;;;;;;;73.82;37.47;;;3.90;99.90;;;;;;4975311;28;20042;-84
2020/12/28 07:58:32;;;;;;;77.38;41.13;;;3.90;99.90;;;;;;4975029;28;20026;-84
2020/12/28 08:01:01;;;;;;;70.45;37.47;;;3.80;99.90;;;;;;4975427;28;20094;-83
2020/12/28 08:03:45;;;;;;;64.88;34.63;;;3.70;99.90;;;;;;4974782;28;20023;-84
2020/12/28 08:06:11;;;;;;;72.25;37.53;;;3.70;99.90;;;;;;4974774;28;20054;-84
2020/12/28 08:08:36;;;;;;;78.82;38.85;;;3.60;99.90;;;;;;4957889;28;20110;-85
2020/12/28 08:11:04;;;;;;;75.32;40.40;;;3.60;99.90;;;;;;4941363;28;20475;-85
2020/12/28 08:13:31;;;;;;;72.97;38.22;;;3.60;99.90;;;;;;4957517;28;20086;-85
2020/12/28 08:16:08;;;;;;;73.50;38.25;;;3.70;99.90;;;;;;4957610;28;20033;-86
2020/12/28 08:18:44;;;;;;;74.60;37.50;;;3.70;99.90;;;;;;4941538;28;20027;-84
2020/12/28 08:21:10;;;;;;;64.38;31.63;;;3.60;99.90;;;;;;4975838;28;20033;-88
2020/12/28 08:23:35;;;;;;;75.45;33.47;;;3.60;99.90;;;;;;4957645;28;20122;-84
2020/12/28 08:26:01;;;;;;;65.95;32.17;;;3.60;99.90;;;;;;4941593;28;20473;-84
2020/12/28 08:28:27;;;;;;;70.18;32.83;;;3.60;99.90;;;;;;4941125;28;20404;-84
2020/12/28 08:30:53;;;;;;;77.63;35.38;;;3.70;99.90;;;;;;4957269;28;20313;-86
2020/12/28 08:33:19;;;;;;;58.30;30.77;;;3.70;99.90;;;;;;4957113;28;20034;-85
2020/12/28 08:35:50;;;;;;;65.95;30.63;;;3.70;99.90;;;;;;4957246;28;20030;-85
2020/12/28 08:38:16;;;;;;;64.82;29.02;;;3.70;99.90;;;;;;4941258;28;20122;-85
2020/12/28 08:40:52;;;;;;;57.67;31.10;;;3.70;99.90;;;;;;4956783;28;20393;-85
2020/12/28 08:43:18;;;;;;;58.60;29.33;;;3.80;99.90;;;;;;4942293;28;20121;-87
2020/12/28 08:45:44;;;;;;;60.88;32.40;;;3.80;99.90;;;;;;4957089;28;20193;-87
2020/12/28 08:48:09;;;;;;;61.30;30.15;;;3.90;99.90;;;;;;4957448;28;20385;-86
2020/12/28 08:50:36;;;;;;;62.67;31.75;;;3.90;99.90;;;;;;4941159;28;20073;-84
2020/12/28 08:53:02;;;;;;;59.65;31.55;;;4.00;99.90;;;;;;4957179;28;20023;-85
2020/12/28 08:55:28;;;;;;;62.70;30.52;;;4.00;99.90;;;;;;4941554;28;20031;-85
2020/12/28 08:57:59;;;;;;;63.05;31.15;;;4.00;99.90;;;;;;4943898;28;20046;-83
2020/12/28 09:00:26;;;;;;;60.00;31.10;;;4.00;99.90;;;;;;4964590;28;20023;-85
2020/12/28 09:02:59;;;;;;;53.33;30.90;;;4.10;99.90;;;;;;4941534;28;20042;-84
2020/12/28 09:05:29;;;;;;;59.65;30.92;;;4.10;99.90;;;;;;4956196;28;20472;-85
2020/12/28 09:07:54;;;;;;;49.75;27.10;;;4.10;99.90;;;;;;4947517;28;20042;-84
2020/12/28 09:10:20;;;;;;;49.20;26.30;;;4.20;99.90;;;;;;4941988;28;20102;-86
2020/12/28 09:12:46;;;;;;;47.50;27.42;;;4.20;99.90;;;;;;4941915;28;20409;-84
2020/12/28 09:15:12;;;;;;;51.05;25.55;;;4.30;99.90;;;;;;4941827;28;20035;-85
2020/12/28 09:17:38;;;;;;;49.30;25.83;;;4.30;99.90;;;;;;4957278;28;20090;-85
2020/12/28 09:20:06;;;;;;;51.85;28.13;;;4.30;99.90;;;;;;4957986;28;20042;-84
2020/12/28 09:22:31;;;;;;;53.78;26.85;;;4.40;99.90;;;;;;4976585;28;20055;-86
2020/12/28 09:24:57;;;;;;;50.83;27.88;;;4.30;99.90;;;;;;4968422;28;20027;-85
2020/12/28 09:27:23;;;;;;;48.53;25.00;;;4.30;99.90;;;;;;4958596;28;20436;-85
2020/12/28 09:29:48;;;;;;;45.10;23.45;;;4.40;99.90;;;;;;4957065;28;20034;-86
2020/12/28 09:32:14;;;;;;;47.55;26.15;;;4.40;99.90;;;;;;4941056;28;20031;-85
2020/12/28 09:34:40;;;;;;;42.63;24.70;;;4.40;99.90;;;;;;4956788;28;20038;-85
2020/12/28 09:37:07;;;;;;;42.17;22.55;;;4.40;99.90;;;;;;4957364;28;20031;-86
2020/12/28 09:39:34;;;;;;;44.03;23.05;;;4.50;99.90;;;;;;4940418;28;20038;-87
2020/12/28 09:42:00;;;;;;;43.88;23.00;;;4.50;99.90;;;;;;4956923;28;20023;-86
2020/12/28 09:44:26;;;;;;;44.70;23.92;;;4.50;99.90;;;;;;4940970;28;20468;-85
2020/12/28 09:46:53;;;;;;;41.65;21.98;;;4.50;99.90;;;;;;4941162;28;20046;-85
2020/12/28 09:49:23;;;;;;;38.13;21.70;;;4.60;99.90;;;;;;4957229;28;20039;-86
2020/12/28 09:51:55;;;;;;;27.33;17.77;;;4.50;99.90;;;;;;4956548;28;20023;-86
2020/12/28 09:54:22;;;;;;;33.13;17.98;;;4.60;99.90;;;;;;4957515;28;20023;-85
2020/12/28 09:56:48;;;;;;;28.75;17.23;;;4.50;99.90;;;;;;4940316;28;20066;-83
2020/12/28 09:59:14;;;;;;;31.60;18.65;;;4.60;99.90;;;;;;4940521;28;20221;-87
2020/12/28 10:01:43;;;;;;;35.67;18.70;;;4.60;99.90;;;;;;4968889;28;20054;-87
2020/12/28 10:04:09;;;;;;;36.78;20.27;;;4.70;99.90;;;;;;4954876;29;20023;-85
2020/12/28 10:06:35;;;;;;;37.72;19.23;;;4.70;99.90;;;;;;4954291;29;20374;-89
2020/12/28 10:09:06;;;;;;;34.13;18.42;;;4.70;99.90;;;;;;4921648;29;20031;-86
2020/12/28 10:11:32;;;;;;;27.08;16.27;;;4.70;99.90;;;;;;4947455;28;20111;-87
2020/12/28 10:13:58;;;;;;;26.02;16.13;;;4.80;99.90;;;;;;4940545;28;20046;-86
2020/12/28 10:16:25;;;;;;;31.15;16.63;;;4.70;99.90;;;;;;4959169;28;20097;-86
2020/12/28 10:18:54;;;;;;;25.65;15.93;;;4.80;99.90;;;;;;4959746;28;20077;-86
2020/12/28 10:21:21;;;;;;;26.42;15.13;;;4.70;99.90;;;;;;4977450;28;20026;-86
2020/12/28 10:23:47;;;;;;;33.05;16.27;;;4.90;99.90;;;;;;4959645;28;20056;-85
2020/12/28 10:26:18;;;;;;;29.17;15.93;;;4.80;99.90;;;;;;4959588;28;20023;-85
2020/12/28 10:28:45;;;;;;;28.25;15.32;;;4.80;99.90;;;;;;4959809;28;20062;-85
2020/12/28 10:31:12;;;;;;;24.10;14.68;;;4.80;99.90;;;;;;4944067;28;20130;-85
2020/12/28 10:33:38;;;;;;;27.48;16.27;;;4.70;99.90;;;;;;4959798;28;20062;-88
2020/12/28 10:36:05;;;;;;;38.20;16.25;;;4.70;99.90;;;;;;4959717;28;20031;-85
2020/12/28 10:38:31;;;;;;;26.35;14.63;;;4.60;99.90;;;;;;4943552;28;20038;-86
2020/12/28 10:40:57;;;;;;;25.65;14.52;;;4.60;99.90;;;;;;4959165;28;20095;-85
2020/12/28 10:43:22;;;;;;;25.85;12.65;;;4.60;99.90;;;;;;4927522;28;20069;-85
2020/12/28 10:45:48;;;;;;;21.35;12.32;;;4.70;99.90;;;;;;4959148;28;20037;-86
2020/12/28 10:48:14;;;;;;;19.05;10.80;;;4.70;99.90;;;;;;4958760;28;20047;-85
2020/12/28 10:50:39;;;;;;;18.15;11.50;;;4.60;99.90;;;;;;4958882;28;20042;-91
2020/12/28 10:53:05;;;;;;;21.38;10.75;;;4.70;99.90;;;;;;4927836;28;20121;-85
2020/12/28 10:55:31;;;;;;;18.90;10.07;;;4.70;99.90;;;;;;4943489;28;20054;-86
2020/12/28 10:57:56;;;;;;;23.10;11.10;;;4.70;99.90;;;;;;4958801;28;20031;-85
2020/12/28 11:00:22;;;;;;;16.77;10.98;;;4.80;99.90;;;;;;4976818;28;20042;-86
2020/12/28 11:02:49;;;;;;;17.65;10.75;;;4.70;99.90;;;;;;4959294;28;20022;-87
2020/12/28 11:05:15;;;;;;;20.50;10.73;;;4.80;99.90;;;;;;4976829;28;20101;-86
2020/12/28 11:07:41;;;;;;;27.85;9.40;;;4.90;99.90;;;;;;4976136;28;20082;-92
2020/12/28 11:10:07;;;;;;;19.77;9.13;;;4.90;99.90;;;;;;4942413;28;20486;-85
2020/12/28 11:12:32;;;;;;;15.30;8.70;;;4.90;99.90;;;;;;4958552;28;20062;-86
2020/12/28 11:14:58;;;;;;;17.13;10.05;;;4.90;99.90;;;;;;4958281;28;20034;-86
2020/12/28 11:17:24;;;;;;;20.27;9.82;;;4.90;99.90;;;;;;4958465;28;20050;-86
2020/12/28 11:19:49;;;;;;;25.15;9.40;;;5.00;99.90;;;;;;4942327;28;20041;-85
2020/12/28 11:22:15;;;;;;;22.83;9.18;;;5.00;99.90;;;;;;4942895;28;20037;-85
2020/12/28 11:24:41;;;;;;;16.20;8.05;;;5.00;99.90;;;;;;4926776;28;20489;-85
2020/12/28 11:27:06;;;;;;;18.38;8.27;;;5.10;99.90;;;;;;4925534;28;20039;-85
2020/12/28 11:29:32;;;;;;;15.43;7.47;;;5.10;99.90;;;;;;4926650;28;20023;-85
2020/12/28 11:31:57;;;;;;;23.60;7.43;;;5.20;99.90;;;;;;4958320;28;20425;-88
2020/12/28 11:34:23;;;;;;;18.52;6.60;;;5.30;99.90;;;;;;4942113;28;20039;-85
2020/12/28 11:36:48;;;;;;;18.05;6.50;;;5.30;99.90;;;;;;4974338;28;20031;-85
2020/12/28 11:39:14;;;;;;;15.23;7.70;;;5.40;99.90;;;;;;4958367;28;20038;-86
2020/12/28 11:41:40;;;;;;;14.18;6.53;;;5.50;99.90;;;;;;4926783;28;20388;-85
2020/12/28 11:44:10;;;;;;;16.77;7.40;;;5.70;99.90;;;;;;4926541;28;20030;-85
2020/12/28 11:46:36;;;;;;;21.42;7.32;;;5.70;99.90;;;;;;4942805;28;20043;-83
2020/12/28 11:49:01;;;;;;;22.67;6.70;;;5.70;99.90;;;;;;4942097;28;20125;-86
2020/12/28 11:51:27;;;;;;;21.35;5.95;;;5.80;99.90;;;;;;4926341;28;20485;-86
2020/12/28 11:53:53;;;;;;;13.85;6.38;;;5.80;99.90;;;;;;4942371;28;20113;-84
2020/12/28 11:56:19;;;;;;;15.15;5.93;;;5.80;99.90;;;;;;4926579;28;20031;-85
2020/12/28 11:58:46;;;;;;;15.73;5.85;;;5.90;99.90;;;;;;4949866;28;20066;-84
2020/12/28 12:01:16;;;;;;;12.95;5.32;;;5.80;99.90;;;;;;4998914;28;20018;-88
2020/12/28 12:03:44;;;;;;;18.48;6.80;;;5.80;99.90;;;;;;4943624;28;20027;-85
2020/12/28 12:06:17;;;;;;;15.27;5.72;;;5.80;99.90;;;;;;4959344;28;20064;-86
2020/12/28 12:11:31;;;;;;;16.38;5.90;;;5.80;99.90;;;;;;4975300;28;20069;-85
2020/12/28 12:13:57;;;;;;;17.23;6.28;;;5.90;99.90;;;;;;4957743;28;20031;-86
2020/12/28 12:16:23;;;;;;;15.43;5.65;;;5.80;99.90;;;;;;4958037;28;20033;-86
2020/12/28 12:18:49;;;;;;;16.55;6.80;;;5.80;99.90;;;;;;4958053;28;20027;-84
2020/12/28 12:21:15;;;;;;;11.27;6.38;;;5.70;99.90;;;;;;4974965;28;20573;-85
2020/12/28 12:23:40;;;;;;;13.77;5.88;;;5.80;99.90;;;;;;4957636;28;20035;-85
2020/12/28 12:26:07;;;;;;;17.83;6.72;;;5.70;99.90;;;;;;4942349;28;20031;-85
2020/12/28 12:28:32;;;;;;;13.57;5.78;;;5.70;99.90;;;;;;4941588;28;20043;-85
2020/12/28 12:30:58;;;;;;;17.70;6.35;;;5.60;99.90;;;;;;4941056;28;20443;-85
2020/12/28 12:33:24;;;;;;;18.63;6.80;;;5.60;99.90;;;;;;4957531;28;20039;-85
2020/12/28 12:35:49;;;;;;;16.40;6.20;;;5.60;99.90;;;;;;4941270;28;20396;-85
2020/12/28 12:38:15;;;;;;;14.98;6.28;;;5.60;99.90;;;;;;4941239;28;20130;-85